NCAR-RAP Real-Time Weather Data

Output produced by METARs form (14 October 2019  23:38 UTC)
found at http://weather.rap.ucar.edu/surface/
 
KHVR 142323Z AUTO 30014G19KT 10SM OVC030 07/00 A3005 RMK AO2 T00670000 $
KHVR 142253Z AUTO 29013G18KT 10SM OVC026 06/01 A3005 RMK AO2 SLP190 T00560006 $